Time;durP1;ratioP1;P1;durP2;ratioP2;P2;SDS_P1;SDS_P2;PMS_P1;PMS_P2;Temp;Humidity;BMP_temperature;BMP_pressure;BME280_temperature;BME280_humidity;BME280_pressure;Samples;Min_cycle;Max_cycle;Signal;HPM_P1;HPM_P2
2022/08/04 00:01:43;;;;;;;6.73;3.60;;;21.80;99.90;;;;;;5075591;28;20175;-56
2022/08/04 00:04:20;;;;;;;11.07;3.23;;;21.70;99.90;;;;;;5075066;28;20188;-57
2022/08/04 00:06:59;;;;;;;8.07;3.73;;;21.70;99.90;;;;;;5075364;28;20190;-56
2022/08/04 00:09:37;;;;;;;8.57;3.57;;;21.70;99.90;;;;;;5107619;28;20259;-56
2022/08/04 00:12:07;;;;;;;7.40;3.63;;;21.70;99.90;;;;;;5075354;28;20207;-57
2022/08/04 00:14:41;;;;;;;9.23;3.60;;;21.70;99.90;;;;;;5074711;28;20247;-57
2022/08/04 00:17:11;;;;;;;8.10;3.03;;;21.70;99.90;;;;;;5075366;28;20196;-58
2022/08/04 00:19:43;;;;;;;6.57;3.27;;;21.60;99.90;;;;;;5074813;28;20253;-55
2022/08/04 00:22:13;;;;;;;8.60;3.73;;;21.50;99.90;;;;;;5075182;28;20199;-56
2022/08/04 00:24:43;;;;;;;3.90;3.40;;;21.40;99.90;;;;;;5075202;28;20188;-57
2022/08/04 00:27:14;;;;;;;6.37;3.47;;;21.40;99.90;;;;;;5074483;28;20192;-56
2022/08/04 00:29:45;;;;;;;6.27;3.73;;;21.30;99.90;;;;;;5073703;28;20195;-56
2022/08/04 00:32:17;;;;;;;8.97;4.33;;;21.30;99.90;;;;;;5073401;28;20755;-56
2022/08/04 00:35:02;;;;;;;8.97;3.83;;;21.30;99.90;;;;;;5074546;28;20248;-55
2022/08/04 00:37:32;;;;;;;9.13;3.93;;;21.30;99.90;;;;;;5074795;28;20198;-57
2022/08/04 00:40:02;;;;;;;7.67;3.80;;;21.40;99.90;;;;;;5074776;28;20226;-56
2022/08/04 00:42:44;;;;;;;5.83;3.87;;;21.40;99.90;;;;;;5073341;28;20654;-56
2022/08/04 00:45:51;;;;;;;11.43;4.20;;;21.40;99.90;;;;;;5073128;28;20188;-57
2022/08/04 00:48:56;;;;;;;4.90;4.03;;;21.40;99.90;;;;;;5074209;28;20674;-57
2022/08/04 00:51:37;;;;;;;8.47;4.30;;;21.40;99.90;;;;;;5074377;28;20220;-56
2022/08/04 00:54:17;;;;;;;5.37;3.97;;;21.30;99.90;;;;;;5073371;28;20541;-56
2022/08/04 00:57:14;;;;;;;7.93;4.40;;;21.30;99.90;;;;;;5073065;28;20284;-57
2022/08/04 01:00:08;;;;;;;6.40;4.10;;;21.30;99.90;;;;;;5074449;28;20196;-57
2022/08/04 01:02:40;;;;;;;5.97;4.10;;;21.30;99.90;;;;;;5074215;28;20229;-56
2022/08/04 01:05:21;;;;;;;10.30;4.23;;;21.20;99.90;;;;;;5074315;28;20275;-56
2022/08/04 01:08:28;;;;;;;15.90;4.33;;;21.20;99.90;;;;;;5074239;28;20191;-56
2022/08/04 01:11:09;;;;;;;7.23;4.60;;;21.20;99.90;;;;;;5063870;28;20214;-56
2022/08/04 01:13:56;;;;;;;8.53;4.30;;;21.20;99.90;;;;;;5072661;28;20703;-56
2022/08/04 01:16:26;;;;;;;7.93;4.10;;;21.20;99.90;;;;;;5074169;28;20696;-56
2022/08/04 01:18:59;;;;;;;8.17;4.50;;;21.20;99.90;;;;;;5056142;28;20291;-56
2022/08/04 01:22:03;;;;;;;7.93;4.37;;;21.10;99.90;;;;;;5073563;28;20211;-56
2022/08/04 01:24:59;;;;;;;13.33;4.23;;;21.10;99.90;;;;;;5064639;28;20282;-57
2022/08/04 01:27:49;;;;;;;7.10;4.50;;;21.10;99.90;;;;;;5072586;28;20192;-56
2022/08/04 01:30:19;;;;;;;6.77;4.57;;;21.00;99.90;;;;;;5073648;28;20618;-57
2022/08/04 01:32:52;;;;;;;7.27;4.73;;;21.00;99.90;;;;;;5074257;28;20271;-57
2022/08/04 01:35:25;;;;;;;12.60;4.90;;;21.00;99.90;;;;;;5073452;28;20224;-57
2022/08/04 01:38:17;;;;;;;6.03;4.27;;;21.00;99.90;;;;;;5065812;28;20638;-57
2022/08/04 01:40:54;;;;;;;13.00;4.20;;;21.00;99.90;;;;;;5053723;28;20223;-56
2022/08/04 01:43:23;;;;;;;9.10;4.10;;;20.90;99.90;;;;;;5053624;28;20195;-56
2022/08/04 01:45:58;;;;;;;7.33;4.03;;;20.90;99.90;;;;;;5053358;28;20615;-57
2022/08/04 01:48:30;;;;;;;8.23;4.23;;;21.00;99.90;;;;;;5052333;28;20287;-56
2022/08/04 01:51:02;;;;;;;5.17;3.67;;;21.00;99.90;;;;;;5053757;28;20599;-56
2022/08/04 01:53:35;;;;;;;8.07;3.77;;;21.00;99.90;;;;;;5053914;28;20181;-57
2022/08/04 01:56:05;;;;;;;5.73;3.70;;;21.00;99.90;;;;;;5053421;28;20191;-57
2022/08/04 01:58:35;;;;;;;9.03;3.80;;;20.90;99.90;;;;;;5053497;28;20532;-57
2022/08/04 02:01:07;;;;;;;8.83;3.60;;;20.90;99.90;;;;;;5053530;28;20205;-56
2022/08/04 02:03:38;;;;;;;6.10;3.70;;;20.90;99.90;;;;;;5053179;28;20258;-56
2022/08/04 02:06:32;;;;;;;4.90;3.63;;;20.90;99.90;;;;;;5053224;28;20644;-56
2022/08/04 02:09:12;;;;;;;8.63;3.87;;;20.80;99.90;;;;;;5056572;28;20314;-56
2022/08/04 02:11:44;;;;;;;5.90;3.57;;;20.80;99.90;;;;;;5073263;28;20198;-56
2022/08/04 02:17:11;;;;;;;5.63;3.60;;;20.70;99.90;;;;;;5073422;28;20612;-56
2022/08/04 02:19:59;;;;;;;8.93;3.30;;;20.60;99.90;;;;;;5073159;28;20192;-56
2022/08/04 02:22:29;;;;;;;3.77;3.47;;;20.60;99.90;;;;;;5073223;28;20287;-56
2022/08/04 02:25:04;;;;;;;3.40;3.10;;;20.60;99.90;;;;;;5073349;28;20188;-56
2022/08/04 02:27:51;;;;;;;5.67;3.40;;;20.50;99.90;;;;;;5071991;28;20218;-56
2022/08/04 02:30:33;;;;;;;5.60;3.60;;;20.50;99.90;;;;;;5072006;28;20224;-56
2022/08/04 02:33:06;;;;;;;5.90;3.40;;;20.40;99.90;;;;;;5073298;28;20268;-56
2022/08/04 02:35:38;;;;;;;7.67;3.80;;;20.40;99.90;;;;;;5073152;28;20223;-56
2022/08/04 02:38:23;;;;;;;7.87;3.90;;;20.30;99.90;;;;;;5073004;28;20196;-56
2022/08/04 02:40:55;;;;;;;3.37;3.07;;;20.30;99.90;;;;;;5071944;28;20195;-55
2022/08/04 02:43:30;;;;;;;7.13;3.37;;;20.30;99.90;;;;;;5073104;28;20546;-57
2022/08/04 02:46:20;;;;;;;4.70;3.60;;;20.20;99.90;;;;;;5073177;28;20191;-55
2022/08/04 02:48:51;;;;;;;4.60;3.37;;;20.20;99.90;;;;;;5073023;28;20580;-56
2022/08/04 02:51:24;;;;;;;6.10;3.30;;;20.20;99.90;;;;;;5074218;28;20270;-56
2022/08/04 02:53:57;;;;;;;5.37;3.40;;;20.10;99.90;;;;;;5076711;28;20219;-56
2022/08/04 02:56:28;;;;;;;4.30;3.30;;;20.10;99.90;;;;;;5076474;28;20239;-55
2022/08/04 02:59:00;;;;;;;9.93;3.33;;;20.00;99.90;;;;;;5071776;28;20207;-56
2022/08/04 03:01:29;;;;;;;5.53;3.37;;;20.00;99.90;;;;;;5056454;28;20224;-56
2022/08/04 03:04:24;;;;;;;7.73;3.67;;;20.00;99.90;;;;;;5056611;28;20556;-56
2022/08/04 03:07:29;;;;;;;6.50;3.10;;;20.00;99.90;;;;;;5071555;28;20229;-55
2022/08/04 03:10:46;;;;;;;6.23;3.53;;;19.90;99.90;;;;;;5056313;28;20715;-56
2022/08/04 03:13:59;;;;;;;3.73;3.30;;;19.80;99.90;;;;;;5043354;28;20219;-56
2022/08/04 03:17:15;;;;;;;6.10;3.43;;;19.80;99.90;;;;;;5047154;28;20251;-56
2022/08/04 03:20:23;;;;;;;3.93;3.63;;;19.70;99.90;;;;;;5056347;28;20219;-56
2022/08/04 03:23:26;;;;;;;5.00;3.63;;;19.70;99.90;;;;;;5055805;28;20276;-56
2022/08/04 03:26:26;;;;;;;4.30;3.90;;;19.60;99.90;;;;;;5080648;28;20201;-56
2022/08/04 03:29:28;;;;;;;9.57;4.10;;;19.70;99.90;;;;;;5095905;28;20183;-56
2022/08/04 03:32:38;;;;;;;5.77;4.40;;;19.70;99.90;;;;;;5095791;28;20547;-57
2022/08/04 03:35:52;;;;;;;6.60;4.13;;;19.70;99.90;;;;;;5095994;28;20225;-56
2022/08/04 03:38:51;;;;;;;9.37;3.80;;;19.70;99.90;;;;;;5077903;28;20287;-56
2022/08/04 03:41:49;;;;;;;10.87;4.47;;;19.70;99.90;;;;;;5057428;28;20191;-56
2022/08/04 03:44:57;;;;;;;5.80;4.03;;;19.70;99.90;;;;;;5055847;28;20181;-56
2022/08/04 03:47:42;;;;;;;12.63;4.20;;;19.70;99.90;;;;;;5056054;28;20581;-56
2022/08/04 03:50:41;;;;;;;6.63;4.13;;;19.70;99.90;;;;;;5055696;28;20223;-56
2022/08/04 03:53:32;;;;;;;7.60;4.50;;;19.70;99.90;;;;;;5051008;28;20585;-56
2022/08/04 03:56:42;;;;;;;7.63;3.80;;;19.70;99.90;;;;;;5059154;28;20208;-56
2022/08/04 03:59:27;;;;;;;7.03;3.97;;;19.60;99.90;;;;;;5073509;28;20291;-56
2022/08/04 04:02:23;;;;;;;11.70;4.50;;;19.60;99.90;;;;;;5074432;28;20245;-56
2022/08/04 04:05:21;;;;;;;8.33;4.33;;;19.60;99.90;;;;;;5074307;28;20216;-56
2022/08/04 04:08:12;;;;;;;9.47;4.33;;;19.60;99.90;;;;;;5075431;28;20275;-56
2022/08/04 04:11:23;;;;;;;6.90;4.07;;;19.50;99.90;;;;;;5057147;28;20192;-56
2022/08/04 04:14:18;;;;;;;5.73;3.93;;;19.50;99.90;;;;;;5033888;28;20214;-56
2022/08/04 04:17:05;;;;;;;7.23;4.40;;;19.50;99.90;;;;;;5075031;28;20216;-56
2022/08/04 04:20:08;;;;;;;9.20;3.90;;;19.50;99.90;;;;;;5075204;28;20690;-56
2022/08/04 04:22:54;;;;;;;10.47;4.20;;;19.50;99.90;;;;;;5043469;28;20292;-56
2022/08/04 04:25:35;;;;;;;5.33;3.93;;;19.50;99.90;;;;;;5074967;28;20179;-56
2022/08/04 04:28:33;;;;;;;5.83;4.03;;;19.50;99.90;;;;;;5074895;28;20192;-56
2022/08/04 04:31:34;;;;;;;10.10;3.90;;;19.50;99.90;;;;;;5073470;28;20196;-56
2022/08/04 04:34:14;;;;;;;8.37;3.83;;;19.50;99.90;;;;;;5073362;28;20580;-56
2022/08/04 04:36:55;;;;;;;7.20;3.80;;;19.50;99.90;;;;;;5073305;28;20214;-56
2022/08/04 04:39:32;;;;;;;6.73;4.20;;;19.50;99.90;;;;;;5074605;28;20707;-56
2022/08/04 04:42:25;;;;;;;9.27;3.93;;;19.50;99.90;;;;;;5074583;28;20191;-56
2022/08/04 04:45:05;;;;;;;5.53;3.67;;;19.50;99.90;;;;;;5073530;28;20287;-56
2022/08/04 04:47:45;;;;;;;5.83;3.60;;;19.50;99.90;;;;;;5073338;28;20694;-56
2022/08/04 04:50:47;;;;;;;6.27;3.80;;;19.50;99.90;;;;;;5074965;28;20287;-55
2022/08/04 04:53:24;;;;;;;6.90;3.73;;;19.50;99.90;;;;;;5074149;28;20274;-56
2022/08/04 04:56:00;;;;;;;9.27;3.80;;;19.50;99.90;;;;;;5073129;28;20303;-56
2022/08/04 04:58:35;;;;;;;7.80;3.60;;;19.50;99.90;;;;;;5074505;28;20267;-56
2022/08/04 05:01:34;;;;;;;3.93;3.50;;;19.50;99.90;;;;;;5072958;28;20517;-56
2022/08/04 05:04:32;;;;;;;3.50;3.20;;;19.50;99.90;;;;;;5074004;28;20231;-56
2022/08/04 05:07:30;;;;;;;4.20;3.20;;;19.60;99.90;;;;;;5073058;28;20200;-56
2022/08/04 05:10:06;;;;;;;3.93;3.40;;;19.60;99.90;;;;;;5078017;28;20661;-56
2022/08/04 05:13:04;;;;;;;6.27;3.30;;;19.70;99.90;;;;;;5073873;28;20263;-56
2022/08/04 05:16:00;;;;;;;6.10;3.70;;;19.70;99.90;;;;;;5073683;28;20222;-56
2022/08/04 05:18:32;;;;;;;4.10;3.20;;;19.70;99.90;;;;;;5073903;28;20270;-56
2022/08/04 05:21:11;;;;;;;8.23;4.03;;;19.70;99.90;;;;;;5073920;28;20717;-56
2022/08/04 05:23:46;;;;;;;7.43;3.90;;;19.70;99.90;;;;;;5073784;28;20242;-56
2022/08/04 05:26:18;;;;;;;5.07;3.50;;;19.70;99.90;;;;;;5073876;28;20187;-56
2022/08/04 05:28:53;;;;;;;4.23;3.60;;;19.70;99.90;;;;;;5073961;28;20283;-56
2022/08/04 05:31:26;;;;;;;5.23;3.50;;;19.70;99.90;;;;;;5054392;28;20703;-55
2022/08/04 05:33:57;;;;;;;7.97;4.03;;;19.80;99.90;;;;;;5053896;28;20193;-56
2022/08/04 05:36:33;;;;;;;7.20;3.70;;;19.80;99.90;;;;;;5052358;28;20204;-57
2022/08/04 05:39:14;;;;;;;5.97;4.00;;;19.90;99.90;;;;;;5053754;28;20212;-57
2022/08/04 05:41:44;;;;;;;4.50;3.90;;;19.90;99.90;;;;;;5085815;28;20189;-56
2022/08/04 05:44:24;;;;;;;9.60;4.10;;;20.00;99.90;;;;;;5069071;28;20292;-56
2022/08/04 05:46:57;;;;;;;12.93;4.03;;;20.10;99.90;;;;;;5053501;28;20271;-56
2022/08/04 05:49:27;;;;;;;7.03;4.20;;;20.20;99.90;;;;;;5069263;28;20609;-57
2022/08/04 05:52:01;;;;;;;6.90;4.00;;;20.30;99.90;;;;;;5052424;28;20284;-56
2022/08/04 05:54:32;;;;;;;8.43;4.30;;;20.40;99.90;;;;;;5053594;28;20192;-56
2022/08/04 05:57:03;;;;;;;10.83;4.33;;;20.50;99.90;;;;;;5052191;28;20204;-56
2022/08/04 05:59:32;;;;;;;10.87;4.60;;;20.50;99.90;;;;;;5068901;28;20200;-56
2022/08/04 06:02:04;;;;;;;7.50;4.10;;;20.60;99.90;;;;;;5053808;28;20696;-56
2022/08/04 06:04:37;;;;;;;8.17;4.10;;;20.70;99.90;;;;;;5052080;28;20224;-56
2022/08/04 06:07:06;;;;;;;9.70;4.57;;;20.80;99.90;;;;;;5053524;28;20177;-56
2022/08/04 06:09:34;;;;;;;8.70;4.13;;;20.70;99.90;;;;;;5052970;28;20315;-56
2022/08/04 06:12:07;;;;;;;10.83;4.47;;;20.70;99.90;;;;;;5052988;28;20592;-56
2022/08/04 06:14:39;;;;;;;11.30;4.40;;;20.70;99.90;;;;;;5053097;28;20197;-56
2022/08/04 06:17:13;;;;;;;9.30;4.33;;;20.80;99.90;;;;;;5052111;28;20208;-57
2022/08/04 06:20:04;;;;;;;8.53;4.80;;;21.00;99.90;;;;;;5053153;28;20189;-56
2022/08/04 06:22:52;;;;;;;9.43;4.93;;;21.10;99.90;;;;;;5053191;28;20221;-56
2022/08/04 06:25:24;;;;;;;6.90;4.40;;;21.30;99.90;;;;;;5053248;28;20254;-56
2022/08/04 06:27:54;;;;;;;11.27;4.70;;;21.40;99.90;;;;;;5056141;28;20220;-56
2022/08/04 06:30:25;;;;;;;10.97;5.33;;;21.60;99.90;;;;;;5057102;28;20255;-56
2022/08/04 06:32:59;;;;;;;10.93;5.57;;;21.70;99.90;;;;;;5056920;28;20242;-56
2022/08/04 06:35:33;;;;;;;8.43;4.97;;;21.80;99.90;;;;;;5057150;28;20216;-56
2022/08/04 06:38:02;;;;;;;9.60;4.90;;;21.90;99.90;;;;;;5056618;28;20261;-56
2022/08/04 06:40:35;;;;;;;8.20;5.60;;;22.10;99.90;;;;;;5072543;28;20223;-56
2022/08/04 06:43:06;;;;;;;9.43;5.60;;;22.20;99.90;;;;;;5057248;28;20203;-57
2022/08/04 06:45:37;;;;;;;6.97;5.23;;;22.30;99.90;;;;;;5076258;28;20229;-57
2022/08/04 06:48:08;;;;;;;12.23;5.83;;;22.40;99.90;;;;;;5076892;28;20195;-56
2022/08/04 06:50:38;;;;;;;10.90;6.07;;;22.30;99.90;;;;;;5067192;28;20688;-56
2022/08/04 06:53:26;;;;;;;11.37;7.50;;;22.30;99.90;;;;;;5056637;28;20204;-57
2022/08/04 06:55:57;;;;;;;11.50;8.50;;;22.30;99.90;;;;;;5056530;28;20200;-56
2022/08/04 06:58:26;;;;;;;13.43;9.87;;;22.20;99.90;;;;;;5056838;28;20303;-55
2022/08/04 07:01:00;;;;;;;21.47;12.67;;;22.20;99.90;;;;;;5056477;28;20315;-56
2022/08/04 07:03:31;;;;;;;23.00;14.80;;;22.10;99.90;;;;;;5056679;28;20263;-56
2022/08/04 07:06:01;;;;;;;28.57;17.07;;;22.00;99.90;;;;;;5106993;28;20629;-56
2022/08/04 07:08:35;;;;;;;46.40;25.77;;;21.90;99.90;;;;;;5074944;28;20221;-56
2022/08/04 07:11:05;;;;;;;43.60;24.77;;;21.90;99.90;;;;;;5076745;28;20201;-56
2022/08/04 07:13:34;;;;;;;48.00;25.07;;;21.80;99.90;;;;;;5076628;28;20212;-55
2022/08/04 07:16:04;;;;;;;44.83;23.33;;;21.70;99.90;;;;;;5076306;28;20271;-56
2022/08/04 07:18:34;;;;;;;39.97;23.13;;;21.60;99.90;;;;;;5074740;28;20639;-56
2022/08/04 07:21:02;;;;;;;38.50;22.27;;;21.60;99.90;;;;;;5075983;28;20192;-56
2022/08/04 07:23:31;;;;;;;43.53;23.43;;;21.60;99.90;;;;;;5075305;28;20552;-56
2022/08/04 07:25:59;;;;;;;42.93;24.87;;;21.60;99.90;;;;;;5076391;28;20547;-55
2022/08/04 07:28:41;;;;;;;38.40;23.17;;;21.60;99.90;;;;;;5074721;28;20286;-57
2022/08/04 07:31:13;;;;;;;36.93;21.33;;;21.70;99.90;;;;;;5075974;28;20180;-56
2022/08/04 07:34:04;;;;;;;45.40;23.17;;;21.90;99.90;;;;;;5075904;28;20193;-56
2022/08/04 07:36:50;;;;;;;49.33;25.10;;;22.00;99.90;;;;;;5061709;28;20209;-56
2022/08/04 07:39:24;;;;;;;35.67;22.87;;;22.00;99.90;;;;;;5069873;28;20197;-56
2022/08/04 07:41:58;;;;;;;37.00;21.43;;;22.00;99.90;;;;;;5076110;28;20192;-55
2022/08/04 07:44:29;;;;;;;36.20;22.30;;;22.10;99.90;;;;;;5075690;28;20195;-56
2022/08/04 07:46:58;;;;;;;39.73;22.93;;;22.00;99.90;;;;;;5075811;28;20189;-56
2022/08/04 07:49:29;;;;;;;40.97;21.67;;;22.00;99.90;;;;;;5075744;28;20197;-56
2022/08/04 07:56:22;;;;;;;31.27;18.67;;;21.90;99.90;;;;;;5065426;28;20185;-59
2022/08/04 07:58:51;;;;;;;32.93;17.63;;;21.80;99.90;;;;;;5068569;28;20218;-56
2022/08/04 08:01:19;;;;;;;31.43;17.80;;;21.80;99.90;;;;;;5075203;28;20651;-56
2022/08/04 08:03:48;;;;;;;32.97;16.97;;;21.70;99.90;;;;;;5074998;28;20547;-56
2022/08/04 08:06:18;;;;;;;28.13;17.13;;;21.60;99.90;;;;;;5073601;28;20223;-56
2022/08/04 08:09:07;;;;;;;26.73;16.60;;;21.60;99.90;;;;;;5053527;28;20310;-56
2022/08/04 08:11:42;;;;;;;29.87;16.60;;;21.60;99.90;;;;;;5053983;28;20199;-56
2022/08/04 08:14:33;;;;;;;34.33;17.37;;;21.60;99.90;;;;;;5054969;28;20224;-56
2022/08/04 08:17:03;;;;;;;33.43;17.30;;;21.50;99.90;;;;;;5067111;28;20254;-56
2022/08/04 08:19:33;;;;;;;34.60;17.93;;;21.40;99.90;;;;;;5069339;28;20198;-56
2022/08/04 08:22:04;;;;;;;30.57;16.63;;;21.30;99.90;;;;;;5074899;28;20275;-56
2022/08/04 08:24:36;;;;;;;30.30;16.90;;;21.20;99.90;;;;;;5075026;28;20180;-56
2022/08/04 08:27:05;;;;;;;26.17;16.17;;;21.20;99.90;;;;;;5075120;28;20206;-57
2022/08/04 08:29:35;;;;;;;29.87;17.13;;;21.20;99.90;;;;;;5073432;28;20257;-56
2022/08/04 08:32:04;;;;;;;29.97;17.77;;;21.20;99.90;;;;;;5090363;28;20191;-58
2022/08/04 08:34:37;;;;;;;31.97;17.13;;;21.20;99.90;;;;;;5064886;28;20362;-57
2022/08/04 08:37:13;;;;;;;34.13;18.10;;;21.10;99.90;;;;;;5073725;28;20196;-58
2022/08/04 08:39:49;;;;;;;32.53;17.30;;;21.10;99.90;;;;;;5069266;28;20255;-64
2022/08/04 08:42:46;;;;;;;33.90;18.10;;;21.20;99.90;;;;;;5064791;28;20193;-56
2022/08/04 08:45:43;;;;;;;29.53;17.17;;;21.20;99.90;;;;;;5054709;28;20254;-56
2022/08/04 08:48:31;;;;;;;32.47;16.67;;;21.20;99.90;;;;;;5051265;28;20231;-57
2022/08/04 08:51:12;;;;;;;27.40;16.40;;;21.20;99.90;;;;;;5074207;28;20223;-56
2022/08/04 09:03:20;;;;;;;25.07;15.53;;;21.20;99.90;;;;;;5067861;28;20192;-57
2022/08/04 09:06:23;;;;;;;29.77;16.27;;;21.30;99.90;;;;;;5033328;28;20204;-56
2022/08/04 09:12:51;;;;;;;27.57;16.70;;;21.40;99.90;;;;;;5065057;28;20164;-56
2022/08/04 09:15:29;;;;;;;28.27;15.73;;;21.40;99.90;;;;;;5056954;28;20279;-57
2022/08/04 09:30:48;;;;;;;25.47;14.93;;;21.50;99.90;;;;;;5073789;28;20269;-56
2022/08/04 09:46:40;;;;;;;18.30;14.07;;;21.80;99.90;;;;;;5053155;28;20151;-57
2022/08/04 09:53:51;;;;;;;17.73;12.93;;;22.00;99.90;;;;;;5071962;28;20205;-56
2022/08/04 10:01:08;;;;;;;12.83;9.80;;;23.10;99.90;;;;;;5065899;28;20276;-57
2022/08/04 10:08:27;;;;;;;12.57;8.52;;;26.20;99.90;;;;;;5066412;28;20223;-56
2022/08/04 10:11:06;;;;;;;8.90;7.22;;;27.30;99.90;;;;;;5051419;28;20636;-57
2022/08/04 10:18:45;;;;;;;9.55;8.27;;;28.30;99.90;;;;;;5068360;28;20215;-57
2022/08/04 10:26:06;;;;;;;9.52;7.63;;;29.10;99.90;;;;;;5071338;28;20235;-57
2022/08/04 10:33:02;;;;;;;7.05;5.88;;;30.60;99.90;;;;;;5067043;28;20180;-57
2022/08/04 10:47:30;;;;;;;10.25;7.28;;;27.60;99.90;;;;;;5072395;28;20569;-57
2022/08/04 10:57:08;;;;;;;8.07;6.22;;;28.40;99.90;;;;;;5082115;28;20235;-57
2022/08/04 10:59:52;;;;;;;7.22;5.38;;;29.40;99.90;;;;;;5072489;28;20250;-57
2022/08/04 11:07:15;;;;;;;6.22;5.63;;;30.00;99.90;;;;;;5072313;28;20214;-57
2022/08/04 11:09:44;;;;;;;8.32;6.00;;;30.50;99.90;;;;;;5072207;28;20647;-57
2022/08/04 11:12:17;;;;;;;12.98;5.88;;;30.40;99.90;;;;;;5071957;28;20229;-58
2022/08/04 11:15:20;;;;;;;7.22;6.38;;;30.20;99.90;;;;;;5069592;28;20276;-57
2022/08/04 11:22:19;;;;;;;11.20;6.05;;;30.30;99.90;;;;;;5055758;28;20186;-57
2022/08/04 11:29:25;;;;;;;9.27;5.82;;;29.10;99.90;;;;;;5067042;28;20570;-57
2022/08/04 11:36:39;;;;;;;7.95;6.40;;;29.70;99.90;;;;;;5070664;28;20666;-57
2022/08/04 11:43:57;;;;;;;8.70;6.63;;;30.30;99.90;;;;;;5074522;28;20164;-57
2022/08/04 11:46:39;;;;;;;9.77;6.75;;;30.60;99.90;;;;;;5073997;28;20200;-57
2022/08/04 11:58:23;;;;;;;14.00;6.68;;;29.90;99.90;;;;;;5072283;28;20268;-56
2022/08/04 12:09:17;;;;;;;11.75;6.90;;;30.80;99.90;;;;;;5073649;28;20248;-57
2022/08/04 12:12:06;;;;;;;17.17;6.57;;;30.50;99.90;;;;;;5054701;28;20259;-57
2022/08/04 12:14:46;;;;;;;12.05;7.05;;;30.40;99.90;;;;;;5069415;28;20222;-57
2022/08/04 12:26:38;;;;;;;9.50;6.40;;;29.70;99.90;;;;;;5063099;28;20175;-56
2022/08/04 12:29:44;;;;;;;7.55;6.03;;;29.50;99.90;;;;;;5063477;28;20247;-57
2022/08/04 12:45:11;;;;;;;7.53;5.97;;;29.50;99.90;;;;;;5074432;28;20201;-56
2022/08/04 12:52:25;;;;;;;6.88;5.93;;;29.10;99.90;;;;;;5055954;28;20251;-57
2022/08/04 13:16:36;;;;;;;5.35;3.30;;;29.70;99.90;;;;;;5053736;28;20232;-57
2022/08/04 13:19:15;;;;;;;5.13;3.33;;;29.70;99.90;;;;;;5068444;28;20210;-57
2022/08/04 13:26:30;;;;;;;8.00;3.45;;;30.10;99.90;;;;;;5068349;28;20177;-56
2022/08/04 13:34:12;;;;;;;5.18;3.38;;;29.60;99.90;;;;;;5068477;28;20187;-57
2022/08/04 13:36:55;;;;;;;3.40;2.75;;;29.30;99.90;;;;;;5067138;28;20231;-57
2022/08/04 13:43:23;;;;;;;6.35;2.90;;;29.90;99.90;;;;;;5056315;28;20231;-57
2022/08/04 13:50:18;;;;;;;6.15;2.42;;;30.40;99.90;;;;;;5058542;28;20185;-56
2022/08/04 13:57:34;;;;;;;6.45;2.25;;;30.40;99.90;;;;;;5069564;28;20178;-57
2022/08/04 14:00:05;;;;;;;3.42;2.35;;;30.20;99.90;;;;;;5072827;28;20719;-56
2022/08/04 14:02:40;;;;;;;2.33;2.00;;;29.90;99.90;;;;;;5073028;28;20194;-57
2022/08/04 14:19:52;;;;;;;7.07;2.30;;;30.10;99.90;;;;;;5052414;28;20302;-57
2022/08/04 14:27:20;;;;;;;4.13;2.25;;;30.00;99.90;;;;;;5068807;28;20203;-57
2022/08/04 14:29:50;;;;;;;6.50;2.28;;;29.90;99.90;;;;;;5061706;28;20222;-56
2022/08/04 14:36:47;;;;;;;2.40;2.20;;;29.90;99.90;;;;;;5067316;28;20178;-57
2022/08/04 14:39:56;;;;;;;4.85;2.65;;;29.90;99.90;;;;;;5058809;28;20673;-57
2022/08/04 14:42:47;;;;;;;2.20;2.00;;;29.80;99.90;;;;;;5061874;28;20195;-57
2022/08/04 14:45:32;;;;;;;2.78;2.55;;;29.70;99.90;;;;;;5072379;28;20210;-57
2022/08/04 14:48:30;;;;;;;2.67;2.20;;;29.60;99.90;;;;;;5071376;28;20210;-57
2022/08/04 14:51:17;;;;;;;2.67;2.10;;;29.50;99.90;;;;;;5062634;28;20195;-56
2022/08/04 15:06:28;;;;;;;2.30;2.10;;;29.00;99.90;;;;;;5061576;28;20189;-57
2022/08/04 15:13:19;;;;;;;4.50;2.75;;;29.40;99.90;;;;;;5063671;28;20294;-56
2022/08/04 15:16:23;;;;;;;4.95;2.35;;;29.70;99.90;;;;;;5075367;28;20202;-57
2022/08/04 15:23:32;;;;;;;3.05;2.70;;;29.80;99.90;;;;;;5055625;28;20172;-57
2022/08/04 15:26:11;;;;;;;5.15;2.45;;;29.70;99.90;;;;;;5084690;28;20626;-57
2022/08/04 15:32:31;;;;;;;5.32;2.90;;;29.30;99.90;;;;;;5045244;28;20676;-57
2022/08/04 15:45:02;;;;;;;3.97;3.03;;;30.40;99.90;;;;;;5069838;28;20184;-56
2022/08/04 15:47:30;;;;;;;5.05;2.75;;;30.60;99.90;;;;;;5060643;28;20194;-57
2022/08/04 16:02:43;;;;;;;2.70;2.50;;;30.90;99.90;;;;;;5073424;28;20202;-56
2022/08/04 16:06:30;;;;;;;3.85;2.38;;;31.10;99.90;;;;;;5072879;28;20699;-56
2022/08/04 16:09:00;;;;;;;4.63;2.63;;;31.00;99.90;;;;;;5107588;28;20188;-57
2022/08/04 16:12:06;;;;;;;2.95;2.42;;;31.10;99.90;;;;;;5073355;28;20206;-57
2022/08/04 16:19:12;;;;;;;8.43;2.92;;;31.00;99.90;;;;;;5085647;28;20186;-56
2022/08/04 16:21:48;;;;;;;4.03;2.05;;;31.00;99.90;;;;;;5074213;28;20198;-57
2022/08/04 16:24:53;;;;;;;2.55;2.28;;;30.80;99.90;;;;;;5060304;28;20224;-57
2022/08/04 16:27:36;;;;;;;6.20;2.30;;;30.50;99.90;;;;;;5062043;28;20280;-57
2022/08/04 16:30:11;;;;;;;5.57;2.53;;;30.20;99.90;;;;;;5074215;28;20206;-57
2022/08/04 16:32:46;;;;;;;3.28;2.40;;;30.00;99.90;;;;;;5074534;28;20655;-57
2022/08/04 16:49:28;;;;;;;3.30;2.60;;;29.40;99.90;;;;;;5058270;28;20545;-56
2022/08/04 17:00:52;;;;;;;3.33;2.10;;;29.40;99.90;;;;;;5067688;28;20287;-56
2022/08/04 17:08:04;;;;;;;5.15;2.42;;;29.00;99.90;;;;;;5059637;28;20703;-57
2022/08/04 17:10:52;;;;;;;3.97;2.40;;;28.70;99.90;;;;;;5060318;28;20590;-56
2022/08/04 17:13:26;;;;;;;2.50;2.30;;;28.20;99.90;;;;;;5072002;28;20235;-57
2022/08/04 17:21:09;;;;;;;4.50;2.47;;;27.80;99.90;;;;;;5053586;28;20203;-56
2022/08/04 17:23:39;;;;;;;5.27;2.30;;;27.60;99.90;;;;;;5068425;28;20691;-57
2022/08/04 17:26:30;;;;;;;3.33;2.53;;;27.50;99.90;;;;;;5063417;28;20279;-57
2022/08/04 17:29:08;;;;;;;4.03;2.40;;;27.40;99.90;;;;;;5085942;28;20272;-56
2022/08/04 17:35:58;;;;;;;4.43;2.50;;;27.00;99.90;;;;;;5062937;28;20180;-57
2022/08/04 17:43:08;;;;;;;7.23;2.47;;;26.70;99.90;;;;;;5053302;28;20188;-56
2022/08/04 17:54:46;;;;;;;4.47;2.70;;;26.10;99.90;;;;;;5053130;28;20582;-56
2022/08/04 17:57:17;;;;;;;3.10;2.30;;;25.70;99.90;;;;;;5063813;28;20199;-56
2022/08/04 18:05:06;;;;;;;3.93;2.50;;;25.70;99.90;;;;;;5073378;28;20224;-56
2022/08/04 18:21:19;;;;;;;3.73;2.20;;;25.00;99.90;;;;;;5052120;28;20254;-56
2022/08/04 18:37:31;;;;;;;4.27;2.37;;;24.40;99.90;;;;;;5076780;28;20658;-56
2022/08/04 18:40:20;;;;;;;2.27;2.17;;;24.30;99.90;;;;;;5076804;28;20198;-56
2022/08/04 18:52:04;;;;;;;3.07;2.23;;;23.90;99.90;;;;;;5075362;28;20228;-56
2022/08/04 18:59:27;;;;;;;5.20;2.70;;;23.70;99.90;;;;;;5073896;28;20295;-56
2022/08/04 19:01:56;;;;;;;5.20;2.53;;;23.60;99.90;;;;;;5063262;28;20748;-56
2022/08/04 19:22:27;;;;;;;3.93;2.67;;;23.30;99.90;;;;;;5070684;28;20200;-56
2022/08/04 19:30:09;;;;;;;2.77;2.40;;;23.10;99.90;;;;;;5075742;28;20330;-56
2022/08/04 19:37:23;;;;;;;3.27;2.40;;;23.00;99.90;;;;;;5071624;28;20187;-56
2022/08/04 19:49:28;;;;;;;5.23;2.63;;;22.80;99.90;;;;;;5065377;28;20211;-56
2022/08/04 20:04:41;;;;;;;6.73;2.30;;;22.60;99.90;;;;;;5065328;28;20215;-57
2022/08/04 20:07:10;;;;;;;5.73;2.20;;;22.50;99.90;;;;;;5074275;28;20266;-57
2022/08/04 20:14:27;;;;;;;4.70;2.70;;;22.40;99.90;;;;;;5066589;28;20206;-56
2022/08/04 20:26:19;;;;;;;3.37;2.10;;;22.30;99.90;;;;;;5068635;28;20175;-56
2022/08/04 20:28:47;;;;;;;4.10;2.30;;;22.20;99.90;;;;;;5058738;28;20252;-56
2022/08/04 20:31:19;;;;;;;4.53;2.23;;;22.20;99.90;;;;;;5107258;28;20191;-56
2022/08/04 20:33:48;;;;;;;2.77;2.30;;;22.20;99.90;;;;;;5074210;28;20283;-56
2022/08/04 20:36:22;;;;;;;6.80;2.40;;;22.20;99.90;;;;;;5074211;28;20199;-57
2022/08/04 20:43:36;;;;;;;3.00;2.20;;;22.20;99.90;;;;;;5071595;28;20883;-57
2022/08/04 20:46:05;;;;;;;4.33;2.20;;;22.10;99.90;;;;;;5073248;28;20214;-57
2022/08/04 20:48:45;;;;;;;4.50;2.30;;;22.10;99.90;;;;;;5071123;28;20565;-57
2022/08/04 20:51:18;;;;;;;2.63;2.10;;;22.10;99.90;;;;;;5079663;28;20185;-57
2022/08/04 21:02:55;;;;;;;2.63;2.43;;;22.00;99.90;;;;;;5040118;28;20196;-57
2022/08/04 21:05:23;;;;;;;3.17;2.30;;;21.90;99.90;;;;;;5054141;28;20231;-57
2022/08/04 21:07:57;;;;;;;4.33;2.37;;;21.90;99.90;;;;;;5066779;28;20195;-58
2022/08/04 21:10:26;;;;;;;3.60;2.23;;;21.90;99.90;;;;;;5073789;28;20215;-57
2022/08/04 21:12:55;;;;;;;3.03;2.47;;;21.80;99.90;;;;;;5072413;28;20662;-57
2022/08/04 21:15:54;;;;;;;2.40;2.20;;;21.80;99.90;;;;;;5064586;28;20312;-57
2022/08/04 21:18:28;;;;;;;6.47;2.20;;;21.80;99.90;;;;;;5065038;28;20284;-57
2022/08/04 21:26:17;;;;;;;7.77;2.37;;;21.70;99.90;;;;;;5032612;28;20269;-57
2022/08/04 21:28:47;;;;;;;8.23;2.33;;;21.60;99.90;;;;;;5033610;28;20618;-56